createdAt,value
2023-01-25T00:02:11.913Z,15.77
2023-01-25T00:04:38.467Z,15.90
2023-01-25T00:07:04.993Z,16.35
2023-01-25T00:09:31.501Z,16.05
2023-01-25T00:11:58.289Z,15.88
2023-01-25T00:14:25.124Z,14.00
2023-01-25T00:16:51.867Z,13.90
2023-01-25T00:19:18.684Z,13.50
2023-01-25T00:21:45.495Z,12.85
2023-01-25T00:24:14.281Z,14.30
2023-01-25T00:26:43.918Z,14.43
2023-01-25T00:29:14.348Z,14.40
2023-01-25T00:31:45.298Z,14.38
2023-01-25T00:34:24.443Z,13.50
2023-01-25T00:37:01.581Z,13.25
2023-01-25T00:39:28.593Z,14.40
2023-01-25T00:41:55.506Z,13.40
2023-01-25T00:44:23.181Z,13.55
2023-01-25T00:46:49.781Z,14.73
2023-01-25T00:49:25.138Z,13.73
2023-01-25T00:51:53.577Z,14.30
2023-01-25T00:54:23.445Z,13.75
2023-01-25T00:56:56.476Z,15.32
2023-01-25T00:59:24.529Z,14.87
2023-01-25T01:01:52.797Z,15.38
2023-01-25T01:04:20.990Z,15.75
2023-01-25T01:06:47.482Z,15.90
2023-01-25T01:09:16.857Z,16.27
2023-01-25T01:11:43.628Z,16.42
2023-01-25T01:14:10.578Z,17.13
2023-01-25T01:16:37.235Z,17.27
2023-01-25T01:19:03.888Z,18.63
2023-01-25T01:21:30.448Z,16.35
2023-01-25T01:23:58.586Z,16.48
2023-01-25T01:26:25.305Z,17.20
2023-01-25T01:28:52.253Z,17.95
2023-01-25T01:31:22.924Z,16.23
2023-01-25T01:33:58.950Z,16.83
2023-01-25T01:36:27.886Z,17.42
2023-01-25T01:38:54.689Z,18.50
2023-01-25T01:41:23.578Z,15.60
2023-01-25T01:43:50.434Z,18.55
2023-01-25T01:46:39.163Z,17.77
2023-01-25T01:49:17.773Z,17.77
2023-01-25T01:51:54.207Z,17.27
2023-01-25T01:54:31.208Z,16.30
2023-01-25T01:57:02.159Z,17.90
2023-01-25T01:59:37.085Z,16.98
2023-01-25T02:02:03.975Z,17.58
2023-01-25T02:04:30.942Z,17.83
2023-01-25T02:07:11.763Z,18.35
2023-01-25T02:09:38.605Z,18.58
2023-01-25T02:12:07.522Z,17.65
2023-01-25T02:14:34.619Z,17.75
2023-01-25T02:17:01.266Z,17.77
2023-01-25T02:19:52.242Z,18.15
2023-01-25T02:22:31.403Z,19.95
2023-01-25T02:25:13.277Z,18.30
2023-01-25T02:27:49.345Z,17.00
2023-01-25T02:30:16.385Z,18.35
2023-01-25T02:32:43.954Z,19.55
2023-01-25T02:35:36.009Z,17.65
2023-01-25T02:38:03.019Z,17.70
2023-01-25T02:40:32.852Z,19.67
2023-01-25T02:42:59.380Z,19.48
2023-01-25T02:45:29.733Z,18.35
2023-01-25T02:47:56.221Z,18.20
2023-01-25T02:50:22.997Z,19.77
2023-01-25T02:52:49.515Z,19.85
2023-01-25T02:55:16.367Z,20.17
2023-01-25T02:57:44.597Z,18.85
2023-01-25T03:00:13.044Z,20.30
2023-01-25T03:02:39.639Z,19.55
2023-01-25T03:05:06.692Z,18.30
2023-01-25T03:07:33.469Z,18.17
2023-01-25T03:10:00.108Z,17.60
2023-01-25T03:12:26.638Z,18.52
2023-01-25T03:14:53.796Z,17.70
2023-01-25T03:17:20.386Z,17.85
2023-01-25T03:19:46.998Z,18.23
2023-01-25T03:22:13.614Z,19.80
2023-01-25T03:24:40.418Z,17.65
2023-01-25T03:27:14.293Z,16.63
2023-01-25T03:29:47.736Z,17.60
2023-01-25T03:32:19.443Z,17.65
2023-01-25T03:34:45.964Z,18.00
2023-01-25T03:37:13.610Z,18.02
2023-01-25T03:39:41.694Z,17.50
2023-01-25T03:42:09.154Z,17.75
2023-01-25T03:44:36.081Z,17.63
2023-01-25T03:47:03.794Z,17.83
2023-01-25T03:49:30.804Z,18.17
2023-01-25T03:51:58.638Z,17.95
2023-01-25T03:54:33.513Z,17.75
2023-01-25T03:57:00.490Z,18.10
2023-01-25T03:59:27.970Z,18.20
2023-01-25T04:01:55.553Z,17.00
2023-01-25T04:04:22.691Z,17.30
2023-01-25T04:06:50.050Z,18.67
2023-01-25T04:09:17.802Z,17.77
2023-01-25T04:11:51.158Z,16.60
2023-01-25T04:14:25.502Z,18.48
2023-01-25T04:17:05.296Z,17.67
2023-01-25T04:19:41.698Z,16.50
2023-01-25T04:22:12.951Z,17.05
2023-01-25T04:24:39.745Z,17.08
2023-01-25T04:27:06.605Z,17.70
2023-01-25T04:29:41.881Z,16.17
2023-01-25T04:32:13.927Z,16.73
2023-01-25T04:34:40.885Z,16.45
2023-01-25T04:37:12.461Z,15.13
2023-01-25T04:39:49.395Z,15.75
2023-01-25T04:42:16.058Z,16.58
2023-01-25T04:44:45.924Z,17.42
2023-01-25T04:47:13.262Z,15.18
2023-01-25T04:49:39.780Z,15.32
2023-01-25T04:52:06.643Z,16.00
2023-01-25T04:54:33.274Z,16.65
2023-01-25T04:57:00.148Z,17.85
2023-01-25T04:59:26.981Z,17.48
2023-01-25T05:01:54.415Z,17.40
2023-01-25T05:04:21.094Z,17.80
2023-01-25T05:06:49.797Z,16.40
2023-01-25T05:09:17.631Z,18.80
2023-01-25T05:11:45.582Z,18.13
2023-01-25T05:14:26.004Z,18.25
2023-01-25T05:16:52.626Z,17.98
2023-01-25T05:19:19.201Z,18.75
2023-01-25T05:21:59.158Z,16.55
2023-01-25T05:24:32.711Z,17.10
2023-01-25T05:27:03.872Z,18.90
2023-01-25T05:29:50.837Z,17.92
2023-01-25T05:32:21.163Z,17.77
2023-01-25T05:34:48.589Z,16.60
2023-01-25T05:37:18.765Z,18.55
2023-01-25T05:39:47.619Z,16.65
2023-01-25T05:42:16.917Z,17.88
2023-01-25T05:44:46.284Z,19.13
2023-01-25T05:47:16.501Z,18.42
2023-01-25T05:49:43.393Z,19.70
2023-01-25T05:52:17.024Z,18.02
2023-01-25T05:54:44.250Z,17.13
2023-01-25T05:57:16.408Z,18.92
2023-01-25T05:59:43.772Z,19.20
2023-01-25T06:02:12.883Z,18.33
2023-01-25T06:04:40.733Z,18.15
2023-01-25T06:07:09.321Z,17.73
2023-01-25T06:09:36.606Z,18.15
2023-01-25T06:12:05.136Z,16.85
2023-01-25T06:14:31.630Z,17.92
2023-01-25T06:16:59.714Z,18.63
2023-01-25T06:19:44.106Z,16.95
2023-01-25T06:22:23.089Z,16.73
2023-01-25T06:24:49.755Z,16.92
2023-01-25T06:27:16.227Z,15.25
2023-01-25T06:29:43.622Z,14.88
2023-01-25T06:32:10.238Z,15.35
2023-01-25T06:34:37.031Z,15.88
2023-01-25T06:37:03.681Z,15.82
2023-01-25T06:39:30.166Z,16.00
2023-01-25T06:41:56.718Z,16.73
2023-01-25T06:44:23.254Z,15.50
2023-01-25T06:46:49.751Z,17.10
2023-01-25T06:49:16.583Z,16.95
2023-01-25T06:51:43.129Z,16.95
2023-01-25T06:54:09.609Z,16.25
2023-01-25T06:56:36.697Z,16.33
2023-01-25T06:59:03.302Z,14.45
2023-01-25T07:01:30.480Z,16.17
2023-01-25T07:03:59.029Z,16.08
2023-01-25T07:06:27.016Z,15.63
2023-01-25T07:08:53.656Z,16.80
2023-01-25T07:11:20.323Z,14.73
2023-01-25T07:13:47.904Z,14.52
2023-01-25T07:16:17.573Z,15.07
2023-01-25T07:18:44.192Z,15.00
2023-01-25T07:21:16.547Z,14.25
2023-01-25T07:23:43.372Z,13.15
2023-01-25T07:26:15.481Z,13.98
2023-01-25T07:28:42.063Z,14.77
2023-01-25T07:31:09.101Z,15.48
2023-01-25T07:33:35.672Z,14.23
2023-01-25T07:36:04.296Z,13.50
2023-01-25T07:38:31.414Z,12.57
2023-01-25T07:40:58.039Z,12.13
2023-01-25T07:43:25.501Z,12.25
2023-01-25T07:45:52.472Z,11.75
2023-01-25T07:48:20.554Z,11.98
2023-01-25T07:51:11.609Z,9.55
2023-01-25T07:53:44.187Z,9.95
2023-01-25T07:56:12.512Z,10.50
2023-01-25T07:58:42.746Z,7.85
2023-01-25T08:01:10.984Z,7.95
2023-01-25T08:03:39.384Z,7.38
2023-01-25T08:06:10.434Z,8.55
2023-01-25T08:08:44.203Z,8.38
2023-01-25T08:11:16.369Z,7.25
2023-01-25T08:13:46.481Z,8.25
2023-01-25T08:16:18.116Z,7.43
2023-01-25T08:18:51.588Z,8.40
2023-01-25T08:21:18.628Z,9.50
2023-01-25T08:23:45.537Z,9.70
2023-01-25T08:26:14.880Z,10.13
2023-01-25T08:28:41.388Z,10.18
2023-01-25T08:31:19.435Z,9.15
2023-01-25T08:33:46.992Z,9.43
2023-01-25T08:36:15.104Z,9.35
2023-01-25T08:38:41.716Z,7.53
2023-01-25T08:41:17.236Z,7.95
2023-01-25T08:43:44.729Z,8.75
2023-01-25T08:46:12.217Z,9.77
2023-01-25T08:48:38.856Z,11.10
2023-01-25T08:51:08.287Z,12.00
2023-01-25T08:53:34.790Z,12.05
2023-01-25T08:56:12.832Z,11.60
2023-01-25T08:58:41.381Z,11.07
2023-01-25T09:01:09.751Z,14.38
2023-01-25T09:03:38.062Z,12.57
2023-01-25T09:06:05.113Z,11.25
2023-01-25T09:08:32.597Z,12.48
2023-01-25T09:11:12.753Z,12.05
2023-01-25T09:13:45.535Z,11.25
2023-01-25T09:16:28.932Z,10.82
2023-01-25T09:18:58.513Z,11.77
2023-01-25T09:21:25.514Z,10.18
2023-01-25T09:24:10.734Z,9.73
2023-01-25T09:26:40.685Z,8.98
2023-01-25T09:29:08.809Z,9.85
2023-01-25T09:31:40.370Z,9.75
2023-01-25T09:34:26.220Z,9.18
2023-01-25T09:37:01.087Z,9.63
2023-01-25T09:39:27.829Z,10.02
2023-01-25T09:42:20.492Z,9.63
2023-01-25T09:45:17.939Z,13.27
2023-01-25T09:47:59.462Z,9.57
2023-01-25T09:50:34.658Z,9.15
2023-01-25T09:53:25.488Z,9.68
2023-01-25T09:55:59.511Z,10.82
2023-01-25T09:58:37.191Z,11.82
2023-01-25T10:01:26.730Z,11.52
2023-01-25T10:04:19.701Z,12.23
2023-01-25T10:07:00.053Z,12.18
2023-01-25T10:09:39.460Z,15.02
2023-01-25T10:12:16.339Z,16.90
2023-01-25T10:14:42.837Z,15.90
2023-01-25T10:17:37.049Z,15.07
2023-01-25T10:20:36.540Z,15.00
2023-01-25T10:23:27.244Z,17.00
2023-01-25T10:26:22.956Z,17.35
2023-01-25T10:29:07.752Z,18.33
2023-01-25T10:31:49.009Z,17.33
2023-01-25T10:34:20.774Z,17.90
2023-01-25T10:36:53.621Z,18.55
2023-01-25T10:39:20.954Z,15.48
2023-01-25T10:41:58.176Z,14.98
2023-01-25T10:44:29.034Z,14.07
2023-01-25T10:46:57.547Z,13.82
2023-01-25T10:49:30.086Z,14.57
2023-01-25T10:51:57.259Z,13.75
2023-01-25T10:54:24.232Z,15.82
2023-01-25T10:56:51.255Z,12.75
2023-01-25T10:59:20.465Z,14.55
2023-01-25T11:01:47.056Z,14.98
2023-01-25T11:04:24.478Z,14.18
2023-01-25T11:06:52.474Z,13.20
2023-01-25T11:09:31.628Z,13.40
2023-01-25T11:12:00.932Z,14.43
2023-01-25T11:14:30.631Z,14.88
2023-01-25T11:16:58.964Z,15.52
2023-01-25T11:19:30.921Z,15.23
2023-01-25T11:21:59.319Z,15.38
2023-01-25T11:24:29.086Z,15.20
2023-01-25T11:27:19.258Z,15.05
2023-01-25T11:30:06.985Z,14.13
2023-01-25T11:32:34.167Z,15.23
2023-01-25T11:35:00.973Z,15.45
2023-01-25T11:38:06.787Z,13.85
2023-01-25T11:40:49.117Z,15.05
2023-01-25T11:43:21.550Z,15.43
2023-01-25T11:45:56.305Z,15.00
2023-01-25T11:48:47.355Z,16.27
2023-01-25T11:51:29.117Z,14.45
2023-01-25T11:54:12.631Z,15.07
2023-01-25T11:56:57.663Z,14.18
2023-01-25T11:59:42.651Z,15.82
2023-01-25T12:02:39.382Z,15.32
2023-01-25T12:05:33.994Z,16.95
2023-01-25T12:08:03.225Z,17.27
2023-01-25T12:11:08.392Z,16.33
2023-01-25T12:16:52.959Z,14.27
2023-01-25T12:19:39.083Z,14.73
2023-01-25T12:22:38.007Z,16.23
2023-01-25T12:25:29.471Z,16.10
2023-01-25T12:28:13.807Z,16.10
2023-01-25T12:30:54.132Z,15.50
2023-01-25T12:33:40.881Z,16.35
2023-01-25T12:36:16.203Z,17.25
2023-01-25T12:39:05.063Z,17.75
2023-01-25T12:42:02.673Z,20.98
2023-01-25T12:44:40.543Z,17.85
2023-01-25T12:47:10.445Z,16.25
2023-01-25T12:49:58.486Z,15.85
2023-01-25T12:52:34.472Z,16.67
2023-01-25T12:55:22.108Z,15.77
2023-01-25T12:58:00.710Z,15.68
2023-01-25T13:01:17.776Z,15.43
2023-01-25T13:03:53.701Z,17.50
2023-01-25T13:06:39.491Z,15.88
2023-01-25T13:09:35.816Z,17.25
2023-01-25T13:12:04.638Z,15.80
2023-01-25T13:14:38.954Z,16.45
2023-01-25T13:17:38.248Z,16.63
2023-01-25T13:20:46.368Z,14.93
2023-01-25T13:23:43.805Z,17.92
2023-01-25T13:26:23.926Z,15.68
2023-01-25T13:28:52.231Z,14.30
2023-01-25T13:31:51.542Z,15.60
2023-01-25T13:34:40.322Z,15.93
2023-01-25T13:37:34.414Z,16.08
2023-01-25T13:40:30.948Z,14.98
2023-01-25T13:43:12.777Z,16.27
2023-01-25T13:45:41.654Z,15.60
2023-01-25T13:48:13.631Z,16.83
2023-01-25T13:50:50.260Z,15.57
2023-01-25T13:53:16.764Z,14.93
2023-01-25T13:55:52.512Z,14.70
2023-01-25T13:58:22.815Z,16.58
2023-01-25T14:00:56.013Z,16.10
2023-01-25T14:03:31.457Z,16.07
2023-01-25T14:06:02.690Z,15.98
2023-01-25T14:08:30.385Z,15.20
2023-01-25T14:10:57.850Z,14.15
2023-01-25T14:13:24.914Z,16.08
2023-01-25T14:15:54.111Z,16.23
2023-01-25T14:18:26.531Z,15.82
2023-01-25T14:21:15.951Z,16.13
2023-01-25T14:23:42.886Z,15.55
2023-01-25T14:26:27.107Z,14.40
2023-01-25T14:29:01.660Z,14.35
2023-01-25T14:31:34.570Z,15.07
2023-01-25T14:34:04.180Z,14.63
2023-01-25T14:36:34.162Z,14.68
2023-01-25T14:39:02.520Z,15.18
2023-01-25T14:41:34.236Z,15.23
2023-01-25T14:44:10.481Z,14.95
2023-01-25T14:46:39.095Z,16.73
2023-01-25T14:49:25.653Z,16.27
2023-01-25T14:51:58.269Z,16.00
2023-01-25T14:54:31.361Z,19.50
2023-01-25T14:57:00.730Z,15.65
2023-01-25T14:59:29.393Z,15.93
2023-01-25T15:02:00.324Z,18.77
2023-01-25T15:04:26.949Z,16.52
2023-01-25T15:06:56.117Z,15.60
2023-01-25T15:09:31.363Z,14.43
2023-01-25T15:12:22.957Z,14.93
2023-01-25T15:14:51.942Z,14.45
2023-01-25T15:17:41.196Z,16.13
2023-01-25T15:20:34.486Z,14.15
2023-01-25T15:23:12.119Z,16.40
2023-01-25T15:25:51.940Z,15.23
2023-01-25T15:28:18.496Z,15.70
2023-01-25T15:30:45.585Z,16.05
2023-01-25T15:33:23.454Z,15.45
2023-01-25T15:35:50.719Z,14.77
2023-01-25T15:38:17.337Z,15.15
2023-01-25T15:40:44.466Z,13.93
2023-01-25T15:43:15.626Z,13.95
2023-01-25T15:45:48.305Z,13.93
2023-01-25T15:48:17.777Z,13.75
2023-01-25T15:50:44.300Z,14.90
2023-01-25T15:53:15.857Z,13.52
2023-01-25T15:55:44.559Z,15.50
2023-01-25T15:58:16.860Z,15.95
2023-01-25T16:00:44.676Z,14.60
2023-01-25T16:03:11.255Z,15.50
2023-01-25T16:05:37.809Z,14.93
2023-01-25T16:08:04.683Z,17.05
2023-01-25T16:10:32.871Z,15.57
2023-01-25T16:12:59.444Z,15.52
2023-01-25T16:15:25.969Z,15.57
2023-01-25T16:17:52.588Z,16.35
2023-01-25T16:20:21.164Z,15.52
2023-01-25T16:22:48.023Z,15.68
2023-01-25T16:25:14.677Z,16.83
2023-01-25T16:27:41.210Z,15.05
2023-01-25T16:30:13.125Z,15.75
2023-01-25T16:32:39.740Z,17.10
2023-01-25T16:35:06.814Z,21.30
2023-01-25T16:37:33.361Z,22.67
2023-01-25T16:39:59.848Z,18.90
2023-01-25T16:42:26.338Z,14.70
2023-01-25T16:44:52.824Z,14.70
2023-01-25T16:47:19.284Z,15.63
2023-01-25T16:49:45.776Z,15.75
2023-01-25T16:52:12.392Z,15.55
2023-01-25T16:54:39.189Z,14.77
2023-01-25T16:57:19.850Z,15.30
2023-01-25T16:59:47.322Z,14.95
2023-01-25T17:02:13.908Z,14.32
2023-01-25T17:04:40.515Z,15.23
2023-01-25T17:07:08.578Z,16.50
2023-01-25T17:09:35.296Z,15.25
2023-01-25T17:12:01.967Z,15.80
2023-01-25T17:14:28.505Z,14.20
2023-01-25T17:16:54.981Z,13.93
2023-01-25T17:19:21.708Z,14.50
2023-01-25T17:21:48.300Z,14.25
2023-01-25T17:24:18.979Z,14.80
2023-01-25T17:26:45.613Z,23.77
2023-01-25T17:29:13.587Z,16.83
2023-01-25T17:31:41.238Z,14.60
2023-01-25T17:34:10.883Z,14.90
2023-01-25T17:36:37.456Z,13.15
2023-01-25T17:39:05.680Z,15.13
2023-01-25T17:41:33.031Z,15.25
2023-01-25T17:43:59.729Z,14.32
2023-01-25T17:46:29.971Z,14.43
2023-01-25T17:48:57.291Z,13.43
2023-01-25T17:51:25.156Z,10.73
2023-01-25T17:53:52.694Z,10.77
2023-01-25T17:56:20.328Z,11.20
2023-01-25T17:58:47.169Z,11.27
2023-01-25T18:01:16.087Z,21.05
2023-01-25T18:03:43.911Z,12.93
2023-01-25T18:06:12.007Z,11.27
2023-01-25T18:08:40.594Z,11.25
2023-01-25T18:11:08.924Z,12.27
2023-01-25T18:13:40.040Z,14.60
2023-01-25T18:16:07.835Z,17.80
2023-01-25T18:18:34.377Z,12.60
2023-01-25T18:21:12.741Z,13.23
2023-01-25T18:23:40.037Z,13.25
2023-01-25T18:26:09.068Z,12.15
2023-01-25T18:28:36.157Z,14.23
2023-01-25T18:31:05.868Z,13.60
2023-01-25T18:33:35.315Z,13.98
2023-01-25T18:36:03.938Z,12.82
2023-01-25T18:38:32.768Z,15.35
2023-01-25T18:40:59.439Z,15.02
2023-01-25T18:43:27.316Z,14.57
2023-01-25T18:45:55.728Z,14.82
2023-01-25T18:48:30.176Z,14.35
2023-01-25T18:51:05.626Z,15.88
2023-01-25T18:53:33.714Z,15.82
2023-01-25T18:56:05.823Z,16.20
2023-01-25T18:58:33.650Z,12.98
2023-01-25T19:01:11.687Z,12.32
2023-01-25T19:03:38.535Z,13.27
2023-01-25T19:06:05.271Z,14.50
2023-01-25T19:08:33.562Z,12.73
2023-01-25T19:11:01.976Z,11.55
2023-01-25T19:13:32.122Z,12.15
2023-01-25T19:16:00.959Z,13.93
2023-01-25T19:18:38.264Z,13.02
2023-01-25T19:21:09.295Z,10.93
2023-01-25T19:23:38.200Z,10.57
2023-01-25T19:26:06.456Z,10.35
2023-01-25T19:28:34.678Z,11.65
2023-01-25T19:31:13.115Z,14.88
2023-01-25T19:33:40.362Z,11.32
2023-01-25T19:36:09.206Z,12.25
2023-01-25T19:38:40.326Z,11.45
2023-01-25T19:41:15.012Z,11.15
2023-01-25T19:43:41.916Z,12.63
2023-01-25T19:46:17.350Z,11.60
2023-01-25T19:48:50.057Z,11.10
2023-01-25T19:51:20.661Z,13.15
2023-01-25T19:53:55.497Z,11.52
2023-01-25T19:56:22.101Z,11.05
2023-01-25T19:58:49.415Z,12.38
2023-01-25T20:01:22.124Z,12.65
2023-01-25T20:03:49.682Z,12.98
2023-01-25T20:06:17.825Z,13.02
2023-01-25T20:08:46.424Z,12.00
2023-01-25T20:11:21.469Z,11.63
2023-01-25T20:13:49.640Z,10.88
2023-01-25T20:16:19.594Z,10.23
2023-01-25T20:18:48.655Z,11.10
2023-01-25T20:21:23.126Z,11.52
2023-01-25T20:23:53.138Z,10.15
2023-01-25T20:26:26.622Z,15.70
2023-01-25T20:28:55.289Z,12.88
2023-01-25T20:31:23.133Z,11.85
2023-01-25T20:33:51.141Z,25.02
2023-01-25T20:36:17.820Z,13.82
2023-01-25T20:38:44.932Z,12.05
2023-01-25T20:41:16.504Z,12.13
2023-01-25T20:43:51.155Z,11.57
2023-01-25T20:46:19.669Z,11.57
2023-01-25T20:48:47.019Z,11.45
2023-01-25T20:51:16.867Z,11.57
2023-01-25T20:53:45.058Z,11.43
2023-01-25T20:56:13.226Z,11.48
2023-01-25T20:58:39.912Z,12.13
2023-01-25T21:01:20.760Z,10.50
2023-01-25T21:03:48.305Z,10.93
2023-01-25T21:06:15.326Z,12.25
2023-01-25T21:08:42.289Z,14.43
2023-01-25T21:11:09.806Z,12.05
2023-01-25T21:13:36.329Z,20.15
2023-01-25T21:16:17.889Z,11.95
2023-01-25T21:18:47.165Z,10.65
2023-01-25T21:21:15.731Z,13.20
2023-01-25T21:23:44.927Z,10.40
2023-01-25T21:26:17.803Z,11.55
2023-01-25T21:28:44.846Z,12.43
2023-01-25T21:31:20.900Z,10.27
2023-01-25T21:33:47.788Z,10.20
2023-01-25T21:36:15.374Z,11.13
2023-01-25T21:38:43.687Z,10.60
2023-01-25T21:41:13.301Z,10.77
2023-01-25T21:43:58.074Z,11.60
2023-01-25T21:46:27.004Z,9.95
2023-01-25T21:49:16.043Z,9.05
2023-01-25T21:51:50.742Z,10.45
2023-01-25T21:54:21.800Z,8.85
2023-01-25T21:56:50.464Z,9.98
2023-01-25T21:59:17.318Z,9.63
2023-01-25T22:01:44.610Z,8.50
2023-01-25T22:04:12.305Z,9.27
2023-01-25T22:06:39.624Z,10.45
2023-01-25T22:09:06.693Z,10.60
2023-01-25T22:11:33.680Z,9.63
2023-01-25T22:14:01.051Z,9.90
2023-01-25T22:16:29.364Z,9.65
2023-01-25T22:18:56.404Z,10.32
2023-01-25T22:21:25.360Z,10.32
2023-01-25T22:23:52.125Z,10.23
2023-01-25T22:26:21.383Z,10.38
2023-01-25T22:28:50.208Z,10.00
2023-01-25T22:31:28.418Z,10.45
2023-01-25T22:33:55.899Z,9.98
2023-01-25T22:36:26.930Z,11.07
2023-01-25T22:38:53.434Z,10.80
2023-01-25T22:41:22.827Z,10.52
2023-01-25T22:43:49.680Z,10.60
2023-01-25T22:46:18.498Z,9.52
2023-01-25T22:48:45.143Z,9.57
2023-01-25T22:51:14.539Z,9.43
2023-01-25T22:53:41.429Z,9.85
2023-01-25T22:56:13.124Z,10.85
2023-01-25T22:58:41.872Z,10.20
2023-01-25T23:01:13.871Z,10.35
2023-01-25T23:03:41.402Z,11.50
2023-01-25T23:06:11.862Z,12.82
2023-01-25T23:08:39.598Z,10.35
2023-01-25T23:11:13.148Z,10.43
2023-01-25T23:13:40.306Z,9.32
2023-01-25T23:16:09.400Z,10.63
2023-01-25T23:18:51.826Z,9.30
2023-01-25T23:21:23.369Z,9.30
2023-01-25T23:23:51.871Z,9.27
2023-01-25T23:26:18.429Z,9.88
2023-01-25T23:28:57.916Z,9.45
2023-01-25T23:31:26.033Z,9.05
2023-01-25T23:33:54.833Z,9.40
2023-01-25T23:36:23.981Z,10.27
2023-01-25T23:38:51.199Z,8.85
2023-01-25T23:41:21.094Z,9.10
2023-01-25T23:43:48.336Z,8.95
2023-01-25T23:46:15.961Z,9.63
2023-01-25T23:48:43.157Z,9.52
2023-01-25T23:51:11.044Z,10.27
2023-01-25T23:53:39.032Z,9.32
2023-01-25T23:56:13.215Z,10.07
2023-01-25T23:58:40.061Z,9.00
